Aeroporto :







RITROVATECI SU...

 
LOGIN :

Iscrizione | Disclaimer

   EN    FR    IT 

 









Sommario :    VFR   VFR Marginale   IFR   IFR Intensivo   IFR Molto Intensivo
Visibilità : 
Base nubi : 
>= 8 km
>= 3000ft
5 / 8 km
1000 / 3000 ft
1500m / 5 km
500 / 1000 ft
800 / 1500m
200 / 500 ft
< 800m
< 200 ft
Simboli :   Temporali  Nebbia  Neve Forte  Precipitazioni Forti  Vento > 20 kt






- Altitudine del aeroporto : 496 ft
- Codice IATA : YQX


CYQX - Gander

ULTIMO METAR :
  • 190400Z 21008KT 20SM FEW200 SCT250 M13/M19 A3040 RMK CC1CI2 SLP309

METARs OBSOLETI :
  • 190300Z 23011KT 20SM FEW250 M12/M18 A3043 RMK CI2 SLP318
  • 190200Z 25007G15KT 20SM SKC M12/M18 A3044 RMK SLP323

TAF TAF CYQX
Valido dal 19 a 00 ore il 20 a 00 ore UTC


182338Z 1900/1924 26012KT P6SM FEW025
FM190800 19015KT P6SM OVC080
FM191100 19015G25KT 5SM -SN OVC030
FM191300 16025G35KT 1SM -SN OVC008
PROB30 1915/1917 2SM -SNPL
FM191700 20025G35KT 2SM -RASN BR OVC008
FM192100 25020G35KT P6SM OVC020 RMK NXT FCST BY 190600Z



MetMap, La meteo Aeronautica in un colpo d'occhio ! - Copyright ORBIFLY Dicembre 2007 - Disclaimer

ORBIFLY MET'MAP TEAM :

Programmazione e sviluppo : Alexandra Zaïnal
Concezione : Baudouin d'Aumeries
Aiuto per la programmazione : Marc-Olivier Méhu
Supporto tecnico e logistico : Manuel Goepfert
Aiuto per la traduzione : Arnaldo La Scala

Contatto : metmap@orbifly.com




FONTI E CREDITI :

   NOAA